createdAt,value
2022-10-18T00:01:10.791Z,76.84
2022-10-18T00:03:39.925Z,77.24
2022-10-18T00:06:09.283Z,77.31
2022-10-18T00:08:37.956Z,77.48
2022-10-18T00:11:06.881Z,77.73
2022-10-18T00:13:35.115Z,77.95
2022-10-18T00:16:07.132Z,77.96
2022-10-18T00:18:35.539Z,78.13
2022-10-18T00:21:06.866Z,78.22
2022-10-18T00:23:36.359Z,78.10
2022-10-18T00:26:08.417Z,78.10
2022-10-18T00:28:39.157Z,78.35
2022-10-18T00:31:13.772Z,77.93
2022-10-18T00:33:43.527Z,78.19
2022-10-18T00:36:12.724Z,78.09
2022-10-18T00:38:41.529Z,78.43
2022-10-18T00:41:11.873Z,78.50
2022-10-18T00:43:55.943Z,78.54
2022-10-18T00:46:27.198Z,78.78
2022-10-18T00:48:57.499Z,78.58
2022-10-18T00:51:28.986Z,78.86
2022-10-18T00:53:57.262Z,78.91
2022-10-18T00:56:25.535Z,78.75
2022-10-18T00:58:54.133Z,79.03
2022-10-18T01:01:25.859Z,78.98
2022-10-18T01:03:58.869Z,79.29
2022-10-18T01:06:28.852Z,79.32
2022-10-18T01:09:11.252Z,79.27
2022-10-18T01:11:59.323Z,79.55
2022-10-18T01:14:41.045Z,79.81
2022-10-18T01:17:15.094Z,79.95
2022-10-18T01:20:16.705Z,79.94
2022-10-18T01:22:48.434Z,80.72
2022-10-18T01:25:29.731Z,80.76
2022-10-18T01:28:05.288Z,81.05
2022-10-18T01:30:49.430Z,81.12
2022-10-18T01:33:28.093Z,81.49
2022-10-18T01:36:04.751Z,81.94
2022-10-18T01:38:35.936Z,81.89
2022-10-18T01:41:06.148Z,81.77
2022-10-18T01:43:36.509Z,81.75
2022-10-18T01:46:06.879Z,81.74
2022-10-18T01:48:38.156Z,81.90
2022-10-18T01:51:06.965Z,81.72
2022-10-18T01:53:36.214Z,81.87
2022-10-18T01:56:38.316Z,81.53
2022-10-18T01:59:17.706Z,81.83
2022-10-18T02:01:58.219Z,81.68
2022-10-18T02:04:34.131Z,81.63
2022-10-18T02:07:09.755Z,81.71
2022-10-18T02:09:43.026Z,81.83
2022-10-18T02:12:15.115Z,81.89
2022-10-18T02:14:46.363Z,81.82
2022-10-18T02:17:18.587Z,81.60
2022-10-18T02:19:51.543Z,81.65
2022-10-18T02:22:21.556Z,81.77
2022-10-18T02:24:54.440Z,81.58
2022-10-18T02:27:23.769Z,81.90
2022-10-18T02:29:52.794Z,81.65
2022-10-18T02:32:29.427Z,81.57
2022-10-18T02:35:01.980Z,81.60
2022-10-18T02:37:35.274Z,81.64
2022-10-18T02:40:05.476Z,81.84
2022-10-18T02:42:37.983Z,81.92
2022-10-18T02:45:08.120Z,82.12
2022-10-18T02:47:37.892Z,81.81
2022-10-18T02:50:07.191Z,81.83
2022-10-18T02:52:35.734Z,81.62
2022-10-18T02:55:04.418Z,81.56
2022-10-18T02:57:33.016Z,81.49
2022-10-18T03:00:01.485Z,81.43
2022-10-18T03:02:29.862Z,81.25
2022-10-18T03:04:59.536Z,81.16
2022-10-18T03:07:27.876Z,80.97
2022-10-18T03:09:57.192Z,80.94
2022-10-18T03:12:25.402Z,80.90
2022-10-18T03:14:53.681Z,80.88
2022-10-18T03:17:21.989Z,80.99
2022-10-18T03:19:50.238Z,80.85
2022-10-18T03:22:20.033Z,80.86
2022-10-18T03:24:48.317Z,80.81
2022-10-18T03:27:16.522Z,80.92
2022-10-18T03:29:44.776Z,80.79
2022-10-18T03:32:13.044Z,80.56
2022-10-18T03:34:41.330Z,80.29
2022-10-18T03:37:09.845Z,80.09
2022-10-18T03:39:39.478Z,80.14
2022-10-18T03:42:07.805Z,80.14
2022-10-18T03:44:36.257Z,80.41
2022-10-18T03:47:04.494Z,80.56
2022-10-18T03:52:01.902Z,80.69
2022-10-18T03:54:30.289Z,80.88
2022-10-18T03:57:00.431Z,80.82
2022-10-18T03:59:28.753Z,80.99
2022-10-18T04:01:57.390Z,81.07
2022-10-18T04:04:26.786Z,81.07
2022-10-18T04:06:55.060Z,81.18
2022-10-18T04:09:23.326Z,80.96
2022-10-18T04:11:51.712Z,81.37
2022-10-18T04:14:22.259Z,81.30
2022-10-18T04:16:50.603Z,81.19
2022-10-18T04:19:18.962Z,81.21
2022-10-18T04:21:47.266Z,81.16
2022-10-18T04:24:17.529Z,81.23
2022-10-18T04:26:45.868Z,81.32
2022-10-18T04:29:14.051Z,81.38
2022-10-18T04:31:43.727Z,81.64
2022-10-18T04:34:12.446Z,81.54
2022-10-18T04:36:40.704Z,81.57
2022-10-18T04:39:08.901Z,81.34
2022-10-18T04:41:37.384Z,81.33
2022-10-18T04:44:05.899Z,81.30
2022-10-18T04:46:34.220Z,81.21
2022-10-18T04:49:03.924Z,81.17
2022-10-18T04:51:32.280Z,81.06
2022-10-18T04:54:00.492Z,80.89
2022-10-18T04:56:28.767Z,80.71
2022-10-18T04:58:57.024Z,80.73
2022-10-18T05:01:25.329Z,80.61
2022-10-18T05:03:54.483Z,80.93
2022-10-18T05:06:24.643Z,80.77
2022-10-18T05:08:52.910Z,80.88
2022-10-18T05:11:21.148Z,80.77
2022-10-18T05:13:50.913Z,80.54
2022-10-18T05:16:19.433Z,80.59
2022-10-18T05:18:47.646Z,80.70
2022-10-18T05:21:16.124Z,80.79
2022-10-18T05:23:45.793Z,80.62
2022-10-18T05:26:14.146Z,80.80
2022-10-18T05:28:42.475Z,80.61
2022-10-18T05:31:12.601Z,80.61
2022-10-18T05:33:41.311Z,80.34
2022-10-18T05:36:10.726Z,80.46
2022-10-18T05:38:42.244Z,80.32
2022-10-18T05:41:12.946Z,80.07
2022-10-18T05:43:41.605Z,80.41
2022-10-18T05:46:14.535Z,80.43
2022-10-18T05:48:44.681Z,80.30
2022-10-18T05:51:13.226Z,80.26
2022-10-18T05:53:41.519Z,80.02
2022-10-18T05:56:12.590Z,80.15
2022-10-18T05:58:41.768Z,80.23
2022-10-18T06:01:11.051Z,80.03
2022-10-18T06:03:39.271Z,80.20
2022-10-18T06:06:10.790Z,80.39
2022-10-18T06:08:39.979Z,80.26
2022-10-18T06:11:08.842Z,80.45
2022-10-18T06:13:42.184Z,80.61
2022-10-18T06:16:11.018Z,80.70
2022-10-18T06:18:39.586Z,80.47
2022-10-18T06:21:08.353Z,80.70
2022-10-18T06:23:37.756Z,80.65
2022-10-18T06:26:08.167Z,80.61
2022-10-18T06:28:39.291Z,80.77
2022-10-18T06:31:08.076Z,80.77
2022-10-18T06:33:37.402Z,80.43
2022-10-18T06:36:08.437Z,80.65
2022-10-18T06:38:36.718Z,80.73
2022-10-18T06:41:06.137Z,80.28
2022-10-18T06:43:35.700Z,80.45
2022-10-18T06:46:08.223Z,80.12
2022-10-18T06:48:37.001Z,80.05
2022-10-18T06:51:07.470Z,80.13
2022-10-18T06:53:44.235Z,80.03
2022-10-18T06:56:21.730Z,80.05
2022-10-18T06:58:49.984Z,80.10
2022-10-18T07:01:20.650Z,80.21
2022-10-18T07:03:50.556Z,80.02
2022-10-18T07:06:20.165Z,79.94
2022-10-18T07:08:49.705Z,80.03
2022-10-18T07:11:20.116Z,79.91
2022-10-18T07:13:48.500Z,79.37
2022-10-18T07:16:20.024Z,79.35
2022-10-18T07:18:49.897Z,78.96
2022-10-18T07:21:20.198Z,78.92
2022-10-18T07:23:48.799Z,79.10
2022-10-18T07:26:18.899Z,79.12
2022-10-18T07:28:49.408Z,79.16
2022-10-18T07:31:20.041Z,79.05
2022-10-18T07:33:48.875Z,78.69
2022-10-18T07:36:17.475Z,78.70
2022-10-18T07:38:45.857Z,78.49
2022-10-18T07:41:15.616Z,78.35
2022-10-18T07:43:45.951Z,78.34
2022-10-18T07:46:16.955Z,78.39
2022-10-18T07:48:47.089Z,78.48
2022-10-18T07:51:15.881Z,78.48
2022-10-18T07:53:44.271Z,78.18
2022-10-18T07:56:16.556Z,78.11
2022-10-18T07:58:45.594Z,78.46
2022-10-18T08:01:15.177Z,78.38
2022-10-18T08:03:44.045Z,78.21
2022-10-18T08:06:16.381Z,78.38
2022-10-18T08:08:45.108Z,78.15
2022-10-18T08:11:16.017Z,78.16
2022-10-18T08:13:44.976Z,78.11
2022-10-18T08:16:15.157Z,77.59
2022-10-18T08:18:43.660Z,77.78
2022-10-18T08:21:15.181Z,76.88
2022-10-18T08:23:44.249Z,76.30
2022-10-18T08:26:14.269Z,76.49
2022-10-18T08:28:49.078Z,76.28
2022-10-18T08:31:22.528Z,76.02
2022-10-18T08:33:50.751Z,75.74
2022-10-18T08:36:20.602Z,75.54
2022-10-18T08:38:49.440Z,75.75
2022-10-18T08:41:32.819Z,75.65
2022-10-18T08:44:08.952Z,75.53
2022-10-18T08:46:40.247Z,75.61
2022-10-18T08:49:12.915Z,75.43
2022-10-18T08:51:48.765Z,75.29
2022-10-18T08:54:23.568Z,75.52
2022-10-18T08:57:00.499Z,75.53
2022-10-18T08:59:33.434Z,75.85
2022-10-18T09:02:13.273Z,75.66
2022-10-18T09:04:50.637Z,75.66
2022-10-18T09:07:46.311Z,75.51
2022-10-18T09:10:22.811Z,75.65
2022-10-18T09:13:09.047Z,75.61
2022-10-18T09:15:44.646Z,75.25
2022-10-18T09:18:29.782Z,75.02
2022-10-18T09:21:00.250Z,75.02
2022-10-18T09:23:40.600Z,74.92
2022-10-18T09:26:16.249Z,75.12
2022-10-18T09:28:55.360Z,74.65
2022-10-18T09:31:30.467Z,74.09
2022-10-18T09:34:02.806Z,73.65
2022-10-18T09:36:35.712Z,73.35
2022-10-18T09:39:12.182Z,73.47
2022-10-18T09:41:47.166Z,72.45
2022-10-18T09:44:22.107Z,72.18
2022-10-18T09:46:56.874Z,71.76
2022-10-18T09:49:31.118Z,71.93
2022-10-18T09:52:05.013Z,71.44
2022-10-18T09:54:39.304Z,70.80
2022-10-18T09:57:13.051Z,70.61
2022-10-18T09:59:44.182Z,70.60
2022-10-18T10:02:15.990Z,70.13
2022-10-18T10:04:44.463Z,69.72
2022-10-18T10:07:17.759Z,69.81
2022-10-18T10:09:49.919Z,70.03
2022-10-18T10:12:30.395Z,68.99
2022-10-18T10:15:10.224Z,69.22
2022-10-18T10:17:38.704Z,69.38
2022-10-18T10:20:18.823Z,68.32
2022-10-18T10:22:48.843Z,68.15
2022-10-18T10:25:33.894Z,66.89
2022-10-18T10:28:05.442Z,67.17
2022-10-18T10:30:35.802Z,67.71
2022-10-18T10:33:05.221Z,67.13
2022-10-18T10:35:52.978Z,67.39
2022-10-18T10:38:26.861Z,67.35
2022-10-18T10:40:57.333Z,67.21
2022-10-18T10:43:43.314Z,65.53
2022-10-18T10:46:14.301Z,65.79
2022-10-18T10:48:57.040Z,65.53
2022-10-18T10:51:34.598Z,65.43
2022-10-18T10:54:04.589Z,65.48
2022-10-18T10:56:37.269Z,64.40
2022-10-18T10:59:14.906Z,65.03
2022-10-18T11:01:43.782Z,63.83
2022-10-18T11:04:27.089Z,64.52
2022-10-18T11:07:04.062Z,63.99
2022-10-18T11:09:45.433Z,63.98
2022-10-18T11:12:23.342Z,63.86
2022-10-18T11:15:10.126Z,64.26
2022-10-18T11:17:46.705Z,64.02
2022-10-18T11:20:24.948Z,63.65
2022-10-18T11:23:04.755Z,63.90
2022-10-18T11:25:59.744Z,64.36
2022-10-18T11:28:41.876Z,62.66
2022-10-18T11:31:19.482Z,62.41
2022-10-18T11:34:09.535Z,62.74
2022-10-18T11:36:56.051Z,62.88
2022-10-18T11:39:33.460Z,62.74
2022-10-18T11:42:09.108Z,62.76
2022-10-18T11:44:45.822Z,62.70
2022-10-18T11:47:22.658Z,62.31
2022-10-18T11:50:05.949Z,62.66
2022-10-18T11:52:47.116Z,63.00
2022-10-18T11:55:31.917Z,62.59
2022-10-18T11:58:09.217Z,62.63
2022-10-18T12:00:49.449Z,62.05
2022-10-18T12:03:28.692Z,62.01
2022-10-18T12:05:59.514Z,61.25
2022-10-18T12:08:32.492Z,61.66
2022-10-18T12:11:07.632Z,61.60
2022-10-18T12:13:40.329Z,61.75
2022-10-18T12:16:12.004Z,62.11
2022-10-18T12:21:29.679Z,62.21
2022-10-18T12:24:00.670Z,61.69
2022-10-18T12:26:32.467Z,61.42
2022-10-18T12:29:11.996Z,61.48
2022-10-18T12:31:47.286Z,61.88
2022-10-18T12:34:29.514Z,61.24
2022-10-18T12:37:21.999Z,60.46
2022-10-18T12:40:12.480Z,60.57
2022-10-18T12:42:45.018Z,61.01
2022-10-18T12:45:35.507Z,61.16
2022-10-18T12:48:09.170Z,61.38
2022-10-18T12:50:39.775Z,61.44
2022-10-18T12:53:20.849Z,60.73
2022-10-18T12:55:51.600Z,60.72
2022-10-18T12:58:31.587Z,60.18
2022-10-18T13:01:02.585Z,60.86
2022-10-18T13:03:52.404Z,60.94
2022-10-18T13:06:21.054Z,61.18
2022-10-18T13:08:51.225Z,61.11
2022-10-18T13:11:33.481Z,61.16
2022-10-18T13:14:25.073Z,60.40
2022-10-18T13:17:02.946Z,60.96
2022-10-18T13:19:41.735Z,60.95
2022-10-18T13:22:26.395Z,60.86
2022-10-18T13:25:04.930Z,60.86
2022-10-18T13:27:43.063Z,61.10
2022-10-18T13:30:31.481Z,60.76
2022-10-18T13:33:15.673Z,61.55
2022-10-18T13:35:57.182Z,61.09
2022-10-18T13:38:38.679Z,60.89
2022-10-18T13:41:09.314Z,60.94
2022-10-18T13:44:11.516Z,60.94
2022-10-18T13:47:19.271Z,60.65
2022-10-18T13:53:26.781Z,61.24
2022-10-18T13:56:22.058Z,61.66
2022-10-18T13:59:14.521Z,61.77
2022-10-18T14:01:57.619Z,61.80
2022-10-18T14:05:16.527Z,61.54
2022-10-18T14:07:52.080Z,62.13
2022-10-18T14:10:50.025Z,61.80
2022-10-18T14:13:22.559Z,61.77
2022-10-18T14:15:54.049Z,62.34
2022-10-18T14:18:31.842Z,62.03
2022-10-18T14:21:22.063Z,62.47
2022-10-18T14:23:52.347Z,62.64
2022-10-18T14:26:22.934Z,63.18
2022-10-18T14:29:03.813Z,62.82
2022-10-18T14:31:32.417Z,63.05
2022-10-18T14:34:02.196Z,62.62
2022-10-18T14:36:35.993Z,63.13
2022-10-18T14:39:06.279Z,63.72
2022-10-18T14:41:38.534Z,63.55
2022-10-18T14:44:21.291Z,63.06
2022-10-18T14:46:52.175Z,63.40
2022-10-18T14:49:21.760Z,62.98
2022-10-18T14:51:53.831Z,63.13
2022-10-18T14:54:29.036Z,62.79
2022-10-18T14:57:01.998Z,62.65
2022-10-18T14:59:33.543Z,62.73
2022-10-18T15:02:05.685Z,62.70
2022-10-18T15:04:33.983Z,62.39
2022-10-18T15:07:03.571Z,62.64
2022-10-18T15:09:33.973Z,63.09
2022-10-18T15:12:06.656Z,63.16
2022-10-18T15:14:36.112Z,63.63
2022-10-18T15:17:08.783Z,63.30
2022-10-18T15:19:41.918Z,63.92
2022-10-18T15:22:30.691Z,64.00
2022-10-18T15:25:15.818Z,64.45
2022-10-18T15:27:48.276Z,64.33
2022-10-18T15:30:20.628Z,64.42
2022-10-18T15:32:52.223Z,64.36
2022-10-18T15:35:26.369Z,64.17
2022-10-18T15:37:57.021Z,64.39
2022-10-18T15:40:36.008Z,64.43
2022-10-18T15:43:28.386Z,64.75
2022-10-18T15:46:00.293Z,64.70
2022-10-18T15:48:34.893Z,64.42
2022-10-18T15:51:05.498Z,64.63
2022-10-18T15:53:38.009Z,64.68
2022-10-18T15:56:08.826Z,64.65
2022-10-18T15:58:45.132Z,65.12
2022-10-18T16:01:20.963Z,65.13
2022-10-18T16:06:27.534Z,65.46
2022-10-18T16:08:55.956Z,65.08
2022-10-18T16:11:27.179Z,65.35
2022-10-18T16:13:59.598Z,65.89
2022-10-18T16:16:30.522Z,65.80
2022-10-18T16:18:58.965Z,66.20
2022-10-18T16:21:29.703Z,66.41
2022-10-18T16:23:58.039Z,66.39
2022-10-18T16:26:27.207Z,67.09
2022-10-18T16:28:58.096Z,66.79
2022-10-18T16:31:28.272Z,66.85
2022-10-18T16:33:57.252Z,67.82
2022-10-18T16:36:29.304Z,68.16
2022-10-18T16:39:00.812Z,68.42
2022-10-18T16:41:29.934Z,68.37
2022-10-18T16:43:59.554Z,68.73
2022-10-18T16:46:30.777Z,68.88
2022-10-18T16:48:59.087Z,69.33
2022-10-18T16:51:28.246Z,69.51
2022-10-18T16:53:56.997Z,69.57
2022-10-18T16:56:28.304Z,69.67
2022-10-18T16:58:56.646Z,70.20
2022-10-18T17:01:27.067Z,70.67
2022-10-18T17:03:55.651Z,70.82
2022-10-18T17:06:25.557Z,70.90
2022-10-18T17:08:55.402Z,71.10
2022-10-18T17:11:25.375Z,71.38
2022-10-18T17:13:53.931Z,71.62
2022-10-18T17:19:04.345Z,72.07
2022-10-18T17:21:33.669Z,72.28
2022-10-18T17:24:03.336Z,72.30
2022-10-18T17:26:32.231Z,72.52
2022-10-18T17:29:03.106Z,72.48
2022-10-18T17:31:33.678Z,72.54
2022-10-18T17:34:02.558Z,72.25
2022-10-18T17:36:31.222Z,72.15
2022-10-18T17:39:00.119Z,72.22
2022-10-18T17:41:28.752Z,72.32
2022-10-18T17:43:57.112Z,72.34
2022-10-18T17:46:25.414Z,72.49
2022-10-18T17:48:55.342Z,72.60
2022-10-18T17:51:23.952Z,72.78
2022-10-18T17:53:52.341Z,72.94
2022-10-18T17:56:20.644Z,73.13
2022-10-18T17:58:51.995Z,73.14
2022-10-18T18:01:21.833Z,72.75
2022-10-18T18:03:50.270Z,72.88
2022-10-18T18:06:22.093Z,73.21
2022-10-18T18:08:51.294Z,73.25
2022-10-18T18:11:20.063Z,72.70
2022-10-18T18:13:48.363Z,72.69
2022-10-18T18:16:18.432Z,72.95
2022-10-18T18:18:47.887Z,73.05
2022-10-18T18:21:16.187Z,73.09
2022-10-18T18:23:46.432Z,73.26
2022-10-18T18:26:15.626Z,73.20
2022-10-18T18:28:44.497Z,73.38
2022-10-18T18:31:14.495Z,73.35
2022-10-18T18:33:43.575Z,73.50
2022-10-18T18:36:12.514Z,73.06
2022-10-18T18:38:43.606Z,72.91
2022-10-18T18:41:14.712Z,73.22
2022-10-18T18:43:44.702Z,73.14
2022-10-18T18:46:13.811Z,73.23
2022-10-18T18:48:42.638Z,72.84
2022-10-18T18:51:14.259Z,73.10
2022-10-18T18:53:43.543Z,73.08
2022-10-18T18:56:15.028Z,73.24
2022-10-18T18:58:45.156Z,73.48
2022-10-18T19:01:17.389Z,73.19
2022-10-18T19:03:46.482Z,73.42
2022-10-18T19:06:17.875Z,73.50
2022-10-18T19:08:46.690Z,73.71
2022-10-18T19:11:18.164Z,73.64
2022-10-18T19:13:48.029Z,73.75
2022-10-18T19:16:22.330Z,73.57
2022-10-18T19:18:55.902Z,73.39
2022-10-18T19:21:25.461Z,73.61
2022-10-18T19:23:53.750Z,73.76
2022-10-18T19:26:29.814Z,73.33
2022-10-18T19:29:03.041Z,73.82
2022-10-18T19:31:31.407Z,73.93
2022-10-18T19:34:00.070Z,74.00
2022-10-18T19:36:29.763Z,73.95
2022-10-18T19:38:58.109Z,73.85
2022-10-18T19:41:28.815Z,74.03
2022-10-18T19:43:57.752Z,74.17
2022-10-18T19:46:26.596Z,73.74
2022-10-18T19:48:55.097Z,74.28
2022-10-18T19:51:27.888Z,74.38
2022-10-18T19:53:57.958Z,74.17
2022-10-18T19:56:29.284Z,74.15
2022-10-18T19:58:59.394Z,74.68
2022-10-18T20:01:28.975Z,74.72
2022-10-18T20:03:57.644Z,74.50
2022-10-18T20:06:26.416Z,74.55
2022-10-18T20:08:54.840Z,74.38
2022-10-18T20:11:24.493Z,74.71
2022-10-18T20:13:55.145Z,74.54
2022-10-18T20:16:28.066Z,75.02
2022-10-18T20:18:58.670Z,74.97
2022-10-18T20:21:28.467Z,75.05
2022-10-18T20:23:57.136Z,75.02
2022-10-18T20:26:26.559Z,75.20
2022-10-18T20:28:59.837Z,75.60
2022-10-18T20:31:30.445Z,75.75
2022-10-18T20:34:00.919Z,75.43
2022-10-18T20:36:30.716Z,75.61
2022-10-18T20:38:59.348Z,75.84
2022-10-18T20:41:29.447Z,75.63
2022-10-18T20:44:00.581Z,75.60
2022-10-18T20:46:32.403Z,75.69
2022-10-18T20:49:00.665Z,75.68
2022-10-18T20:51:28.981Z,75.72
2022-10-18T20:53:57.733Z,76.32
2022-10-18T20:56:27.642Z,76.24
2022-10-18T20:58:58.457Z,75.80
2022-10-18T21:01:28.940Z,75.86
2022-10-18T21:04:00.970Z,75.80
2022-10-18T21:06:31.382Z,76.50
2022-10-18T21:09:01.453Z,76.26
2022-10-18T21:11:32.201Z,76.45
2022-10-18T21:14:03.869Z,76.40
2022-10-18T21:16:33.131Z,76.28
2022-10-18T21:19:03.757Z,76.59
2022-10-18T21:21:32.117Z,76.49
2022-10-18T21:24:03.872Z,76.87
2022-10-18T21:26:35.919Z,77.08
2022-10-18T21:29:06.290Z,77.35
2022-10-18T21:31:36.953Z,76.99
2022-10-18T21:34:07.868Z,77.13
2022-10-18T21:36:37.823Z,77.05
2022-10-18T21:39:08.587Z,76.96
2022-10-18T21:41:37.871Z,77.26
2022-10-18T21:44:10.682Z,77.12
2022-10-18T21:46:40.208Z,77.49
2022-10-18T21:49:09.565Z,77.58
2022-10-18T21:51:39.164Z,77.60
2022-10-18T21:54:09.803Z,77.45
2022-10-18T21:56:38.127Z,77.43
2022-10-18T21:59:07.938Z,77.76
2022-10-18T22:01:38.416Z,77.94
2022-10-18T22:04:09.145Z,78.01
2022-10-18T22:06:38.081Z,77.94
2022-10-18T22:09:09.086Z,77.87
2022-10-18T22:11:41.730Z,77.69
2022-10-18T22:14:11.480Z,77.79
2022-10-18T22:16:39.813Z,77.68
2022-10-18T22:19:09.495Z,77.81
2022-10-18T22:21:37.799Z,78.00
2022-10-18T22:24:09.101Z,78.27
2022-10-18T22:26:39.233Z,78.05
2022-10-18T22:29:11.125Z,78.31
2022-10-18T22:31:44.496Z,78.13
2022-10-18T22:34:15.298Z,78.32
2022-10-18T22:36:44.133Z,78.61
2022-10-18T22:39:14.546Z,78.29
2022-10-18T22:41:43.868Z,78.53
2022-10-18T22:44:13.404Z,78.25
2022-10-18T22:46:43.555Z,78.14
2022-10-18T22:49:12.572Z,78.62
2022-10-18T22:51:41.329Z,78.45
2022-10-18T22:54:09.791Z,78.39
2022-10-18T22:56:38.271Z,78.47
2022-10-18T22:59:06.681Z,78.43
2022-10-18T23:01:35.047Z,78.77
2022-10-18T23:04:05.478Z,78.94
2022-10-18T23:06:35.834Z,78.94
2022-10-18T23:09:08.004Z,78.76
2022-10-18T23:11:38.181Z,78.81
2022-10-18T23:14:08.225Z,78.57
2022-10-18T23:16:36.765Z,78.70
2022-10-18T23:19:06.708Z,78.71
2022-10-18T23:21:35.369Z,78.51
2022-10-18T23:24:03.849Z,78.62
2022-10-18T23:26:34.400Z,78.78
2022-10-18T23:29:02.745Z,78.67
2022-10-18T23:31:33.025Z,78.57
2022-10-18T23:34:03.211Z,78.60
2022-10-18T23:36:34.195Z,78.78
2022-10-18T23:39:03.527Z,78.62
2022-10-18T23:41:31.841Z,78.87
2022-10-18T23:44:00.128Z,78.77
2022-10-18T23:46:28.315Z,79.18
2022-10-18T23:48:57.617Z,79.17
2022-10-18T23:51:25.787Z,78.83
2022-10-18T23:53:55.425Z,78.50
2022-10-18T23:56:23.741Z,78.60
2022-10-18T23:58:52.013Z,79.12
